Time;durP1;ratioP1;P1;durP2;ratioP2;P2;SDS_P1;SDS_P2;PMS_P1;PMS_P2;Temp;Humidity;BMP_temperature;BMP_pressure;BME280_temperature;BME280_humidity;BME280_pressure;Samples;Min_cycle;Max_cycle;Signal;HPM_P1;HPM_P2
2022/01/14 00:00:44;;;;;;;22.48;12.07;;;;;;;4.96;90.52;103480.03;2071029;28;46067;-72
2022/01/14 00:01:46;;;;;;;22.15;11.50;;;;;;;4.97;90.69;103471.22;2070920;28;44331;-72
2022/01/14 00:02:49;;;;;;;20.50;10.65;;;;;;;5.01;89.76;103473.19;2071514;28;46801;-72
2022/01/14 00:03:51;;;;;;;23.10;11.05;;;;;;;4.98;90.51;103468.63;2071497;28;41470;-72
2022/01/14 00:04:52;;;;;;;19.13;11.25;;;;;;;4.98;89.63;103468.63;2071629;28;44242;-72
2022/01/14 00:05:54;;;;;;;19.13;11.20;;;;;;;5.01;90.04;103473.19;2071070;28;44539;-71
2022/01/14 00:06:56;;;;;;;21.98;11.32;;;;;;;5.01;89.76;103473.19;2070420;28;45615;-72
2022/01/14 00:07:58;;;;;;;19.17;10.77;;;;;;;5.00;89.81;103467.81;2071919;28;45996;-72
2022/01/14 00:09:05;;;;;;;20.23;11.10;;;;;;;4.98;90.09;103476.59;2071549;28;43650;-72
2022/01/14 00:10:10;;;;;;;19.92;10.65;;;;;;;4.98;90.03;103467.75;2071678;28;45144;-72
2022/01/14 00:11:17;;;;;;;27.27;11.13;;;;;;;5.00;90.06;103481.09;2071429;28;44646;-72
2022/01/14 00:12:24;;;;;;;23.00;12.02;;;;;;;4.97;90.09;103472.16;2071644;28;43998;-72
2022/01/14 00:15:12;;;;;;;27.35;11.50;;;;;;;4.97;90.04;103466.84;2071370;28;43806;-72
2022/01/14 00:16:14;;;;;;;23.90;10.95;;;;;;;4.97;89.71;103456.22;2071673;28;43079;-72
2022/01/14 00:17:16;;;;;;;26.60;11.35;;;;;;;4.98;89.89;103460.66;2071402;28;46045;-71
2022/01/14 00:18:17;;;;;;;22.35;11.73;;;;;;;4.97;90.20;103461.53;2072313;28;45452;-72
2022/01/14 00:19:19;;;;;;;20.08;10.73;;;;;;;4.97;90.04;103456.22;2087108;28;46267;-72
2022/01/14 00:20:22;;;;;;;20.63;11.13;;;;;;;4.99;89.97;103458.94;2087334;28;42520;-72
2022/01/14 00:21:27;;;;;;;21.27;11.60;;;;;;;4.97;89.85;103453.56;2071701;28;45415;-72
2022/01/14 00:22:30;;;;;;;24.67;11.63;;;;;;;4.98;89.96;103455.34;2071424;28;45225;-72
2022/01/14 00:23:39;;;;;;;25.13;11.40;;;;;;;4.97;89.78;103450.91;2071565;28;43247;-72
2022/01/14 00:31:53;;;;;;;20.05;11.25;;;;;;;4.98;89.84;103459.78;2079327;28;44075;-72
2022/01/14 00:33:09;;;;;;;22.85;11.23;;;;;;;4.98;89.97;103451.81;2073148;28;44795;-72
2022/01/14 00:34:15;;;;;;;25.15;11.43;;;;;;;4.96;89.93;103448.19;2072761;28;20112;-72
2022/01/14 00:35:17;;;;;;;21.23;12.05;;;;;;;4.96;89.95;103449.09;2079205;28;27344;-72
2022/01/14 00:36:18;;;;;;;24.73;12.23;;;;;;;4.97;90.73;103458.88;2087516;28;43206;-72
2022/01/14 00:37:20;;;;;;;21.25;11.80;;;;;;;4.96;90.56;103450.84;2069580;28;45343;-72
2022/01/14 00:38:22;;;;;;;23.00;12.20;;;;;;;4.96;91.00;103458.81;2071892;28;20054;-72
2022/01/14 00:39:23;;;;;;;20.95;11.25;;;;;;;4.95;90.16;103451.69;2076568;28;45178;-72
2022/01/14 00:40:26;;;;;;;23.92;12.27;;;;;;;4.94;90.55;103455.19;2077510;28;44934;-72
2022/01/14 00:41:30;;;;;;;29.45;12.70;;;;;;;4.94;90.29;103453.44;2078629;28;42205;-71
2022/01/14 00:42:31;;;;;;;24.75;12.35;;;;;;;4.94;90.27;103461.41;2070964;28;44336;-71
2022/01/14 00:43:33;;;;;;;25.35;12.48;;;;;;;4.95;90.22;103447.28;2072084;28;36283;-72
2022/01/14 00:44:36;;;;;;;18.23;12.05;;;;;;;4.96;90.49;103459.72;2071703;28;44312;-72
2022/01/14 00:45:41;;;;;;;21.35;12.38;;;;;;;4.97;90.28;103455.28;2071687;28;43887;-72
2022/01/14 00:46:46;;;;;;;25.67;11.95;;;;;;;4.96;90.12;103456.16;2079150;28;44826;-72
2022/01/14 00:47:48;;;;;;;21.10;11.60;;;;;;;4.96;89.87;103454.41;2078207;28;44013;-72
2022/01/14 00:48:50;;;;;;;26.77;12.32;;;;;;;4.95;89.83;103451.69;2071203;28;45125;-72
2022/01/14 00:49:54;;;;;;;21.70;12.80;;;;;;;4.95;89.95;103449.03;2071582;28;43418;-72
2022/01/14 00:50:58;;;;;;;22.40;12.32;;;;;;;4.95;90.04;103449.03;2071067;28;45695;-72
2022/01/14 00:52:01;;;;;;;28.13;12.43;;;;;;;4.94;90.51;103450.78;2072230;28;20081;-72
2022/01/14 00:53:03;;;;;;;20.30;12.15;;;;;;;4.94;89.64;103450.78;2070830;28;45409;-72
2022/01/14 00:54:06;;;;;;;22.13;12.20;;;;;;;4.95;90.06;103446.38;2070648;28;48501;-72
2022/01/14 00:55:13;;;;;;;26.77;12.45;;;;;;;4.94;89.72;103453.44;2070675;28;43498;-72
2022/01/14 00:56:26;;;;;;;21.92;11.65;;;;;;;4.92;89.91;103447.16;2072064;28;20615;-72
2022/01/14 01:00:20;;;;;;;24.00;11.93;;;;;;;4.91;89.77;103434.72;2070867;28;44962;-72
2022/01/14 01:01:22;;;;;;;24.10;11.95;;;;;;;4.92;89.80;103441.84;2082796;28;28135;-72
2022/01/14 01:02:23;;;;;;;21.05;11.93;;;;;;;4.93;90.78;103440.09;2087156;28;44496;-72
2022/01/14 01:03:27;;;;;;;24.70;11.20;;;;;;;4.93;89.89;103443.66;2071213;28;46294;-72
2022/01/14 01:04:35;;;;;;;25.73;12.05;;;;;;;4.92;89.82;103436.53;2071390;28;43287;-72
2022/01/14 01:05:37;;;;;;;21.45;11.73;;;;;;;4.93;89.57;103433.03;2071054;28;45098;-72
2022/01/14 01:06:40;;;;;;;19.67;10.93;;;;;;;4.91;90.02;103432.06;2072129;28;23662;-72
2022/01/14 01:07:48;;;;;;;27.40;11.73;;;;;;;4.90;89.85;103427.63;2071705;28;44254;-72
2022/01/14 01:08:52;;;;;;;22.40;11.15;;;;;;;4.90;89.07;103435.56;2071143;28;45196;-72
2022/01/14 01:09:53;;;;;;;23.10;11.98;;;;;;;4.92;90.11;103440.97;2078913;28;43700;-72
2022/01/14 01:10:55;;;;;;;27.35;12.27;;;;;;;4.90;89.95;103432.00;2078471;28;43459;-72
2022/01/14 01:12:16;;;;;;;23.42;11.40;;;;;;;4.90;89.58;103430.28;2070876;28;45694;-72
2022/01/14 01:13:23;;;;;;;29.73;12.23;;;;;;;4.90;89.19;103429.34;2079032;28;43377;-72
2022/01/14 01:14:34;;;;;;;25.33;11.75;;;;;;;4.90;89.73;103435.56;2075390;28;46431;-72
2022/01/14 01:15:36;;;;;;;24.08;11.00;;;;;;;4.88;89.34;103424.00;2078109;28;44433;-72
2022/01/14 01:16:38;;;;;;;25.27;10.43;;;;;;;4.90;89.86;103421.38;2070630;28;45626;-72
2022/01/14 01:17:40;;;;;;;19.75;10.55;;;;;;;4.88;89.55;103431.97;2070810;28;44640;-72
2022/01/14 01:18:42;;;;;;;24.58;11.05;;;;;;;4.89;89.78;103431.09;2079726;28;43394;-72
2022/01/14 01:19:45;;;;;;;20.67;10.70;;;;;;;4.88;89.55;103416.03;2081165;28;23445;-72
2022/01/14 01:20:47;;;;;;;22.23;9.90;;;;;;;4.90;89.48;103419.66;2072349;28;42024;-72
2022/01/14 01:21:48;;;;;;;19.52;10.63;;;;;;;4.89;89.69;103424.91;2072860;28;45118;-72
2022/01/14 01:23:04;;;;;;;18.80;10.18;;;;;;;4.90;89.79;103426.69;2089350;28;21050;-72
2022/01/14 01:24:17;;;;;;;19.58;10.50;;;;;;;4.89;89.68;103428.44;2079344;28;20893;-72
2022/01/14 01:25:22;;;;;;;17.67;11.13;;;;;;;4.89;90.01;103425.78;2072442;28;27881;-72
2022/01/14 01:26:31;;;;;;;22.13;11.55;;;;;;;4.88;89.04;103431.97;2072782;28;43494;-72
2022/01/14 01:27:38;;;;;;;24.92;11.93;;;;;;;4.92;90.20;103425.03;2072919;28;44211;-72
2022/01/14 01:28:55;;;;;;;23.35;11.48;;;;;;;4.89;89.46;103425.78;2072635;28;43645;-72
2022/01/14 01:30:12;;;;;;;25.23;11.88;;;;;;;4.90;89.98;103422.31;2072407;28;45427;-72
2022/01/14 01:32:34;;;;;;;24.02;10.93;;;;;;;4.88;89.55;103421.34;2078175;28;43637;-72
2022/01/14 01:33:37;;;;;;;23.05;11.38;;;;;;;4.89;89.44;103425.78;2081034;28;20172;-72
2022/01/14 01:34:39;;;;;;;21.83;11.02;;;;;;;4.89;89.29;103423.13;2080645;28;20904;-72
2022/01/14 01:35:42;;;;;;;23.48;11.15;;;;;;;4.90;89.25;103429.34;2072538;28;43704;-71
2022/01/14 01:36:48;;;;;;;23.40;11.35;;;;;;;4.89;89.29;103430.19;2079582;28;44046;-72
2022/01/14 01:37:50;;;;;;;19.38;11.15;;;;;;;4.90;89.24;103432.00;2089628;28;24686;-72
2022/01/14 01:38:52;;;;;;;22.13;11.88;;;;;;;4.91;89.74;103428.50;2086659;28;45688;-71
2022/01/14 01:39:54;;;;;;;22.63;12.13;;;;;;;4.90;89.31;103426.69;2072079;28;46282;-72
2022/01/14 01:40:56;;;;;;;26.50;11.65;;;;;;;4.90;89.22;103427.63;2073327;28;20132;-72
2022/01/14 01:42:01;;;;;;;23.38;11.50;;;;;;;4.89;89.21;103419.59;2073259;28;28025;-71
2022/01/14 01:43:06;;;;;;;20.52;11.07;;;;;;;4.91;89.38;103424.09;2080224;28;45817;-72
2022/01/14 01:44:10;;;;;;;18.17;10.13;;;;;;;4.92;89.36;103425.91;2080547;28;20037;-72
2022/01/14 01:45:20;;;;;;;21.30;11.40;;;;;;;4.90;89.37;103427.63;2072222;28;46509;-72
2022/01/14 01:46:23;;;;;;;20.08;10.80;;;;;;;4.91;89.23;103428.50;2072315;28;43592;-72
2022/01/14 01:47:27;;;;;;;20.55;11.45;;;;;;;4.90;89.49;103417.00;2072451;28;45432;-72
2022/01/14 01:48:29;;;;;;;21.73;10.65;;;;;;;4.91;89.01;103423.19;2072523;28;45954;-72
2022/01/14 01:49:35;;;;;;;23.17;11.10;;;;;;;4.92;89.19;103414.41;2072607;28;42805;-72
2022/01/14 01:50:38;;;;;;;21.45;11.48;;;;;;;4.92;89.37;103419.72;2072439;28;44805;-72
2022/01/14 01:51:45;;;;;;;24.48;12.00;;;;;;;4.90;89.42;103416.06;2072569;28;42713;-72
2022/01/14 01:52:49;;;;;;;26.15;11.40;;;;;;;4.92;89.31;103417.06;2072475;28;45521;-72
2022/01/14 01:53:51;;;;;;;27.20;11.75;;;;;;;4.93;89.44;103411.78;2072169;28;46025;-72
2022/01/14 01:54:53;;;;;;;24.23;11.50;;;;;;;4.93;89.48;103411.78;2080223;28;45261;-71
2022/01/14 01:55:54;;;;;;;23.40;11.23;;;;;;;4.94;89.06;103408.31;2087574;28;44387;-72
2022/01/14 01:56:57;;;;;;;21.10;12.05;;;;;;;4.93;89.04;103411.78;2079677;28;44444;-72
2022/01/14 01:58:01;;;;;;;22.00;11.30;;;;;;;4.93;89.02;103419.75;2080366;28;44103;-72
2022/01/14 01:59:04;;;;;;;25.05;11.32;;;;;;;4.93;89.05;103409.13;2079446;28;44781;-72
2022/01/14 02:00:08;;;;;;;25.33;12.10;;;;;;;4.92;89.17;103404.69;2071817;28;43799;-72
2022/01/14 02:01:17;;;;;;;24.13;11.77;;;;;;;4.93;89.34;103414.44;2080757;28;20132;-72
2022/01/14 02:02:19;;;;;;;23.98;11.90;;;;;;;4.94;89.26;103412.72;2088768;28;35130;-72
2022/01/14 02:03:21;;;;;;;21.95;12.05;;;;;;;4.93;89.15;103401.16;2079574;28;43901;-72
2022/01/14 02:04:23;;;;;;;20.02;11.35;;;;;;;4.94;89.43;103410.97;2079678;28;45822;-72
2022/01/14 02:05:27;;;;;;;20.02;10.77;;;;;;;4.95;89.37;103409.19;2088434;28;35570;-72
2022/01/14 02:06:29;;;;;;;24.00;11.55;;;;;;;4.95;89.57;103409.19;2080049;28;44058;-72
2022/01/14 02:07:32;;;;;;;20.13;11.43;;;;;;;4.94;89.39;103403.00;2079712;28;46239;-72
2022/01/14 02:08:36;;;;;;;24.33;11.77;;;;;;;4.95;89.51;103402.16;2072788;28;30883;-72
2022/01/14 02:09:38;;;;;;;20.45;11.48;;;;;;;4.94;89.41;103396.78;2079578;28;46254;-72
2022/01/14 02:10:40;;;;;;;24.25;12.88;;;;;;;4.92;89.67;103399.38;2088108;28;42599;-72
2022/01/14 02:11:42;;;;;;;27.38;12.23;;;;;;;4.93;89.75;103409.13;2079469;28;44255;-72
2022/01/14 02:12:50;;;;;;;25.17;12.18;;;;;;;4.91;89.58;103408.16;2072686;28;20810;-72
2022/01/14 02:13:54;;;;;;;18.67;11.68;;;;;;;4.93;89.92;103401.16;2088072;28;44220;-72
2022/01/14 02:15:12;;;;;;;24.35;12.63;;;;;;;4.93;89.76;103405.59;2071666;28;20173;-72
2022/01/14 02:16:30;;;;;;;28.17;12.88;;;;;;;4.93;89.65;103400.28;2077696;28;27199;-72
2022/01/14 02:18:25;;;;;;;;;;;;;;;4.95;90.01;103401.22;2077166;28;20947;-72
2022/01/14 02:23:04;;;;;;;18.33;12.15;;;;;;;4.93;89.54;103389.66;2072047;28;46094;-72
2022/01/14 02:24:35;;;;;;;29.23;13.95;;;;;;;4.93;89.64;103395.84;2072160;28;45514;-72
2022/01/14 02:25:32;;;;;;;21.17;12.75;;;;;;;4.94;89.57;103391.47;2072318;28;46450;-71
2022/01/14 02:26:52;;;;;;;23.52;12.35;;;;;;;4.93;89.88;103401.16;2071709;28;45504;-72
2022/01/14 02:28:09;;;;;;;27.45;13.25;;;;;;;4.93;89.82;103390.56;2082577;28;44412;-72
2022/01/14 02:29:11;;;;;;;22.52;12.73;;;;;;;4.93;89.84;103392.31;2080082;28;44400;-72
2022/01/14 02:30:13;;;;;;;25.77;14.40;;;;;;;4.94;89.68;103395.03;2071451;28;45142;-72
2022/01/14 02:31:18;;;;;;;22.70;13.27;;;;;;;4.94;89.88;103386.16;2071498;28;46706;-72
2022/01/14 02:32:22;;;;;;;24.00;14.15;;;;;;;4.95;90.00;103395.94;2071706;28;42479;-72
2022/01/14 02:33:24;;;;;;;21.58;13.48;;;;;;;4.95;90.03;103388.88;2072442;28;45460;-72
2022/01/14 02:34:26;;;;;;;25.02;13.45;;;;;;;4.95;89.89;103394.19;2072188;28;46113;-72
2022/01/14 02:35:29;;;;;;;25.88;14.00;;;;;;;4.96;90.13;103385.38;2079891;28;43884;-72
2022/01/14 02:36:32;;;;;;;26.20;13.75;;;;;;;4.95;89.44;103386.25;2087813;28;44926;-72
2022/01/14 02:37:34;;;;;;;22.77;13.77;;;;;;;4.96;90.03;103384.47;2087368;28;43926;-72
2022/01/14 02:38:36;;;;;;;30.88;15.05;;;;;;;4.95;89.96;103380.94;2080176;28;28535;-72
2022/01/14 02:39:38;;;;;;;28.65;14.85;;;;;;;4.96;89.85;103390.69;2078880;28;46065;-71
2022/01/14 02:40:42;;;;;;;25.40;14.80;;;;;;;4.94;89.58;103381.75;2079642;28;44188;-72
2022/01/14 02:41:46;;;;;;;27.05;15.00;;;;;;;4.96;89.80;103380.06;2079504;28;46362;-72
2022/01/14 02:42:48;;;;;;;25.83;14.23;;;;;;;4.97;90.00;103376.56;2079782;28;41462;-72
2022/01/14 02:43:50;;;;;;;25.13;13.88;;;;;;;4.96;90.04;103374.75;2079266;28;44287;-72
2022/01/14 02:44:57;;;;;;;26.75;14.55;;;;;;;4.96;90.41;103373.84;2071878;28;45353;-71
2022/01/14 02:45:58;;;;;;;28.80;15.30;;;;;;;4.96;89.97;103372.09;2072511;28;42569;-72
2022/01/14 02:47:05;;;;;;;24.08;14.20;;;;;;;4.96;90.62;103368.53;2087781;28;45732;-72
2022/01/14 02:48:11;;;;;;;26.40;14.43;;;;;;;4.97;89.95;103367.69;2086512;28;35984;-72
2022/01/14 02:49:13;;;;;;;27.85;14.27;;;;;;;4.97;89.66;103359.72;2072473;28;37283;-72
2022/01/14 02:50:19;;;;;;;23.67;13.93;;;;;;;4.97;90.59;103365.97;2072276;28;44248;-72
2022/01/14 02:51:21;;;;;;;31.63;15.02;;;;;;;4.96;89.91;103361.47;2072056;28;43220;-71
2022/01/14 02:52:42;;;;;;;28.52;15.25;;;;;;;4.95;90.29;103362.34;2071965;28;44286;-72
2022/01/14 02:53:56;;;;;;;29.00;14.88;;;;;;;4.96;90.53;103361.47;2079928;28;44631;-72
2022/01/14 02:55:14;;;;;;;27.20;14.82;;;;;;;4.95;90.09;103367.66;2077416;28;44756;-72
2022/01/14 02:56:21;;;;;;;26.95;14.35;;;;;;;4.95;90.18;103374.69;2071947;28;46275;-72
2022/01/14 02:57:23;;;;;;;24.83;14.50;;;;;;;4.95;90.47;103378.28;2080106;28;43555;-72
2022/01/14 02:58:29;;;;;;;30.48;15.63;;;;;;;4.95;90.00;103378.28;2087671;28;45702;-72
2022/01/14 02:59:35;;;;;;;26.10;14.20;;;;;;;4.96;90.25;103371.19;2086096;28;45868;-72
2022/01/14 03:00:37;;;;;;;23.67;14.15;;;;;;;4.97;90.28;103371.28;2071509;28;45756;-72
2022/01/14 03:01:45;;;;;;;28.70;14.70;;;;;;;4.97;90.36;103376.56;2072634;28;35898;-72
2022/01/14 03:02:49;;;;;;;31.52;14.80;;;;;;;4.97;90.04;103373.00;2071886;28;43450;-72
2022/01/14 03:03:56;;;;;;;23.77;13.95;;;;;;;4.98;90.31;103373.06;2088543;28;20049;-72
2022/01/14 03:04:58;;;;;;;24.88;15.13;;;;;;;4.96;90.45;103369.44;2085849;28;44770;-72
2022/01/14 03:06:03;;;;;;;28.42;14.82;;;;;;;4.95;90.16;103372.03;2079887;28;44027;-72
2022/01/14 03:07:06;;;;;;;27.17;14.73;;;;;;;4.96;90.47;103374.75;2079319;28;45013;-72
2022/01/14 03:08:08;;;;;;;30.88;14.65;;;;;;;4.96;90.17;103369.44;2079954;28;45719;-71
2022/01/14 03:09:11;;;;;;;25.92;14.88;;;;;;;4.95;90.27;103367.66;2079188;28;45425;-71
2022/01/14 03:10:17;;;;;;;29.00;16.80;;;;;;;4.96;90.16;103363.25;2071636;28;38437;-72
2022/01/14 03:11:34;;;;;;;25.15;13.25;;;;;;;4.96;90.45;103363.25;2071165;28;42793;-72
2022/01/14 03:12:41;;;;;;;25.67;14.82;;;;;;;4.95;90.71;103357.03;2072221;28;20168;-71
2022/01/14 03:13:43;;;;;;;27.95;14.73;;;;;;;4.95;90.12;103357.03;2079516;28;43009;-72
2022/01/14 03:14:45;;;;;;;32.30;14.23;;;;;;;4.95;90.45;103357.03;2087780;28;43897;-72
2022/01/14 03:15:47;;;;;;;23.25;14.52;;;;;;;4.95;90.33;103351.72;2079191;28;45343;-72
2022/01/14 03:16:55;;;;;;;25.33;15.20;;;;;;;4.94;90.56;103363.16;2081067;28;20042;-71
2022/01/14 03:17:56;;;;;;;26.33;14.50;;;;;;;4.95;89.90;103370.31;2078288;28;44257;-72
2022/01/14 03:19:06;;;;;;;29.75;15.35;;;;;;;4.93;91.02;103365.75;2070892;28;44632;-72
2022/01/14 03:20:22;;;;;;;30.00;15.60;;;;;;;4.93;90.67;103369.31;2072120;28;45121;-71
2022/01/14 03:21:29;;;;;;;28.33;14.27;;;;;;;4.94;91.23;103360.53;2072230;28;35257;-72
2022/01/14 03:22:34;;;;;;;31.40;15.10;;;;;;;4.95;91.14;103357.03;2071624;28;43961;-72
2022/01/14 03:23:48;;;;;;;29.63;14.80;;;;;;;4.95;90.76;103364.06;2071874;28;44044;-72
2022/01/14 03:25:52;;;;;;;22.48;13.82;;;;;;;4.96;90.56;103368.53;2071768;28;44081;-72
2022/01/14 03:26:57;;;;;;;25.77;14.43;;;;;;;4.95;89.94;103362.34;2072384;28;20158;-72
2022/01/14 03:27:58;;;;;;;24.33;14.50;;;;;;;4.94;90.37;103357.88;2072118;28;43170;-71
2022/01/14 03:29:00;;;;;;;26.33;15.27;;;;;;;4.96;90.20;103364.13;2079390;28;45540;-71
2022/01/14 03:30:02;;;;;;;21.30;13.77;;;;;;;4.95;90.78;103357.03;2078834;28;45150;-72
2022/01/14 03:31:07;;;;;;;23.55;13.52;;;;;;;4.95;90.74;103357.03;2072438;28;20049;-71
2022/01/14 03:32:09;;;;;;;25.25;14.15;;;;;;;4.95;90.57;103356.09;2071862;28;44798;-72
2022/01/14 03:33:11;;;;;;;25.45;14.40;;;;;;;4.95;90.73;103356.09;2071760;28;45847;-72
2022/01/14 03:34:14;;;;;;;24.23;14.38;;;;;;;4.96;90.66;103365.91;2071611;28;44097;-72
2022/01/14 03:35:15;;;;;;;27.92;13.30;;;;;;;4.96;90.82;103357.94;2071853;28;46403;-72
2022/01/14 03:36:18;;;;;;;26.85;13.80;;;;;;;4.95;90.77;103351.72;2072585;28;20027;-72
2022/01/14 03:37:20;;;;;;;25.00;14.25;;;;;;;4.95;90.81;103357.03;2070164;28;43817;-72
2022/01/14 03:38:21;;;;;;;25.17;13.65;;;;;;;4.95;90.68;103357.03;2078699;28;45662;-72
2022/01/14 03:39:24;;;;;;;32.40;14.13;;;;;;;4.96;90.92;103344.66;2079552;28;43459;-71
2022/01/14 03:40:26;;;;;;;25.17;13.65;;;;;;;4.95;90.86;103341.09;2087676;28;33926;-72
2022/01/14 03:41:28;;;;;;;25.85;13.70;;;;;;;4.96;90.70;103348.19;2086594;28;43839;-72
2022/01/14 03:42:29;;;;;;;26.80;14.82;;;;;;;4.96;90.48;103342.00;2071843;28;43374;-72
2022/01/14 03:43:32;;;;;;;29.55;15.30;;;;;;;4.96;91.04;103342.00;2072062;28;40773;-72
2022/01/14 03:44:34;;;;;;;27.52;15.05;;;;;;;4.95;91.46;103343.75;2071874;28;44017;-72
2022/01/14 03:45:38;;;;;;;26.23;13.75;;;;;;;4.96;90.39;103342.00;2078983;28;46336;-72
2022/01/14 03:46:40;;;;;;;25.80;13.35;;;;;;;4.97;91.05;103343.78;2079441;28;21951;-72
2022/01/14 03:47:42;;;;;;;29.02;13.73;;;;;;;4.97;91.27;103338.47;2071572;28;45674;-71
2022/01/14 03:48:43;;;;;;;26.80;13.23;;;;;;;4.97;90.91;103343.78;2071806;28;45920;-71
2022/01/14 03:49:45;;;;;;;27.20;13.38;;;;;;;4.96;90.95;103332.28;2071908;28;44753;-71
2022/01/14 03:50:47;;;;;;;28.48;13.40;;;;;;;4.97;90.90;103336.75;2071416;28;46584;-72
2022/01/14 03:51:49;;;;;;;25.25;13.90;;;;;;;4.97;90.71;103334.09;2072501;28;43696;-72
2022/01/14 03:52:50;;;;;;;29.23;14.85;;;;;;;4.97;91.21;103328.78;2071689;28;45647;-72
2022/01/14 03:53:52;;;;;;;26.92;13.98;;;;;;;4.97;90.81;103343.78;2071353;28;46744;-72
2022/01/14 03:54:54;;;;;;;31.23;15.90;;;;;;;4.97;91.43;103327.88;2079487;28;42557;-71
2022/01/14 03:56:16;;;;;;;26.85;13.93;;;;;;;4.97;91.06;103328.78;2088431;28;20049;-72
2022/01/14 03:57:18;;;;;;;28.23;14.32;;;;;;;4.97;91.00;103322.56;2076019;28;46113;-72
2022/01/14 03:58:20;;;;;;;32.78;14.77;;;;;;;4.96;91.40;103326.97;2071266;28;44309;-71
2022/01/14 03:59:21;;;;;;;32.95;14.60;;;;;;;4.96;90.73;103315.44;2086891;28;45070;-71
2022/01/14 04:00:23;;;;;;;28.98;15.23;;;;;;;4.96;91.03;103323.41;2087842;28;42275;-71
2022/01/14 04:01:25;;;;;;;31.10;15.77;;;;;;;4.96;91.55;103320.75;2071705;28;31623;-72
2022/01/14 04:02:29;;;;;;;33.78;18.25;;;;;;;4.96;91.26;103323.41;2071504;28;44906;-71
2022/01/14 04:03:31;;;;;;;30.88;16.30;;;;;;;4.96;90.87;103323.41;2079169;28;45111;-71
2022/01/14 04:04:33;;;;;;;27.83;14.25;;;;;;;4.95;91.55;103314.56;2087074;28;46649;-72
2022/01/14 04:05:35;;;;;;;23.63;13.20;;;;;;;4.96;91.11;103316.34;2081407;28;37787;-72
2022/01/14 04:06:37;;;;;;;29.15;14.68;;;;;;;4.94;90.58;103307.44;2063266;28;45681;-70
2022/01/14 04:07:39;;;;;;;28.83;14.77;;;;;;;4.97;91.23;103306.63;2063517;28;43512;-72
2022/01/14 04:08:41;;;;;;;25.35;13.95;;;;;;;4.96;91.23;103305.72;2063862;28;34810;-71
2022/01/14 04:09:43;;;;;;;28.10;14.48;;;;;;;4.96;91.33;103308.38;2063199;28;46600;-72
2022/01/14 04:10:46;;;;;;;25.60;13.93;;;;;;;4.95;91.24;103309.25;2063603;28;42156;-72
2022/01/14 04:11:48;;;;;;;32.88;16.98;;;;;;;4.96;90.76;103305.72;2063227;28;44256;-72
2022/01/14 04:12:59;;;;;;;30.48;15.27;;;;;;;4.95;91.31;103309.25;2063668;28;46071;-71
2022/01/14 04:15:36;;;;;;;25.17;13.57;;;;;;;4.95;91.45;103309.25;2063926;28;45530;-71
2022/01/14 04:15:45;;;;;;;25.08;13.60;;;;;;;4.95;91.28;103293.31;2063665;28;44333;-72
2022/01/14 04:16:46;;;;;;;36.70;15.45;;;;;;;4.95;90.97;103288.00;2092195;22;38712;-73
2022/01/14 04:17:50;;;;;;;25.92;13.90;;;;;;;4.95;91.23;103282.69;2098145;28;44663;-73
2022/01/14 04:18:52;;;;;;;24.40;13.60;;;;;;;4.96;91.41;103281.84;2095398;28;46108;-73
2022/01/14 04:19:54;;;;;;;28.90;13.63;;;;;;;4.92;91.30;103277.25;2097051;28;32511;-72
2022/01/14 04:20:56;;;;;;;31.90;15.18;;;;;;;4.95;90.61;103277.38;2096039;28;44257;-75
2022/01/14 04:21:58;;;;;;;26.98;15.30;;;;;;;4.96;91.41;103281.84;2096178;28;44629;-73
2022/01/14 04:23:00;;;;;;;24.63;14.10;;;;;;;4.95;91.73;103271.16;2096080;28;45293;-73
2022/01/14 04:24:02;;;;;;;31.67;14.90;;;;;;;4.93;91.56;103267.53;2096077;28;44732;-72
2022/01/14 04:25:05;;;;;;;29.50;15.60;;;;;;;4.91;91.56;103264.81;2097008;28;30598;-72
2022/01/14 04:26:06;;;;;;;34.92;15.18;;;;;;;4.90;91.91;103263.03;2096258;28;45172;-73
2022/01/14 04:27:08;;;;;;;30.88;14.88;;;;;;;4.89;91.65;103261.22;2095726;28;45746;-73
2022/01/14 04:28:10;;;;;;;27.27;14.15;;;;;;;4.88;91.61;103272.69;2096042;28;38447;-73
2022/01/14 04:29:14;;;;;;;33.13;15.82;;;;;;;4.88;91.54;103266.47;2095300;28;44921;-73
2022/01/14 04:30:17;;;;;;;24.15;13.30;;;;;;;4.87;91.75;103273.53;2096229;28;41189;-73
2022/01/14 04:31:19;;;;;;;28.98;14.35;;;;;;;4.87;91.53;103267.31;2094917;28;43092;-73
2022/01/14 04:32:21;;;;;;;27.55;14.52;;;;;;;4.84;91.70;103268.09;2095790;28;43564;-73
2022/01/14 04:33:26;;;;;;;27.90;14.13;;;;;;;4.86;91.58;103268.16;2095701;28;36782;-73
2022/01/14 04:34:27;;;;;;;29.60;13.77;;;;;;;4.85;90.98;103258.41;2087276;28;46615;-73
2022/01/14 04:35:31;;;;;;;33.45;14.45;;;;;;;4.83;91.27;103261.00;2095984;28;41378;-73
2022/01/14 04:36:33;;;;;;;28.05;14.65;;;;;;;4.81;91.79;103252.06;2095574;28;44202;-73
2022/01/14 04:37:35;;;;;;;25.55;13.00;;;;;;;4.79;91.85;103245.78;2096100;28;45135;-73
2022/01/14 04:38:37;;;;;;;26.48;13.40;;;;;;;4.77;92.04;103242.16;2095335;28;43381;-73
2022/01/14 04:39:39;;;;;;;28.55;14.60;;;;;;;4.72;91.55;103233.13;2095450;28;44029;-73
2022/01/14 04:40:40;;;;;;;28.23;14.38;;;;;;;4.69;92.31;103233.91;2096001;28;44601;-73
2022/01/14 04:41:42;;;;;;;32.45;14.88;;;;;;;4.67;92.31;103243.56;2096634;28;30690;-73
2022/01/14 04:42:48;;;;;;;28.30;15.23;;;;;;;4.64;92.38;103234.59;2095839;28;45424;-73
2022/01/14 04:43:50;;;;;;;26.35;13.20;;;;;;;4.60;92.59;103236.22;2096561;28;43899;-73
2022/01/14 04:44:54;;;;;;;29.52;14.02;;;;;;;4.57;92.19;103236.97;2094887;28;44381;-73
2022/01/14 04:47:13;;;;;;;34.15;14.93;;;;;;;4.58;93.12;103237.91;2095607;28;43642;-73
2022/01/14 04:48:15;;;;;;;29.88;14.52;;;;;;;4.59;92.09;103230.03;2099208;28;45528;-73
2022/01/14 04:49:17;;;;;;;29.33;15.18;;;;;;;4.57;92.52;103226.38;2096133;28;43630;-72
2022/01/14 04:50:22;;;;;;;25.23;14.02;;;;;;;4.54;92.53;103230.66;2096244;28;31189;-73
2022/01/14 04:51:24;;;;;;;33.38;15.02;;;;;;;4.53;93.07;103231.53;2103429;28;45900;-72
2022/01/14 04:52:29;;;;;;;32.47;14.98;;;;;;;4.51;92.64;103218.19;2103461;28;44282;-74
2022/01/14 04:53:33;;;;;;;32.20;14.60;;;;;;;4.50;92.05;103213.72;2097100;28;45825;-73
2022/01/14 04:54:36;;;;;;;33.42;15.82;;;;;;;4.51;92.43;103220.84;2097213;28;42197;-73
2022/01/14 04:55:39;;;;;;;29.90;15.13;;;;;;;4.49;92.36;103225.19;2105196;28;43942;-73
2022/01/14 04:56:40;;;;;;;32.85;16.58;;;;;;;4.46;92.91;103225.06;2105238;28;44435;-73
2022/01/14 04:57:43;;;;;;;33.03;15.40;;;;;;;4.46;92.67;103233.03;2097443;28;38964;-72
2022/01/14 04:58:47;;;;;;;27.98;14.73;;;;;;;4.45;92.60;103227.66;2097524;28;35426;-73
2022/01/14 04:59:49;;;;;;;34.50;15.02;;;;;;;4.45;92.97;103230.31;2097739;28;41545;-73
2022/01/14 05:00:52;;;;;;;30.98;16.05;;;;;;;4.42;92.82;103225.78;2104940;28;45628;-73
2022/01/14 05:01:56;;;;;;;25.92;16.02;;;;;;;4.43;92.75;103230.22;2097483;28;45226;-73
2022/01/14 05:02:58;;;;;;;38.38;16.38;;;;;;;4.44;92.68;103224.09;2097338;28;44761;-73
2022/01/14 05:04:00;;;;;;;34.15;15.90;;;;;;;4.43;93.17;103237.31;2097905;28;40730;-73
2022/01/14 05:05:07;;;;;;;30.20;15.95;;;;;;;4.43;92.92;103238.19;2097534;28;46129;-73
2022/01/14 05:06:08;;;;;;;28.73;15.27;;;;;;;4.46;93.24;103243.63;2096470;28;44032;-73
2022/01/14 05:07:15;;;;;;;31.48;16.02;;;;;;;4.46;92.91;103233.03;2097012;28;46694;-73
2022/01/14 05:08:24;;;;;;;34.22;15.48;;;;;;;4.48;92.66;103233.97;2097632;28;42696;-73
2022/01/14 05:09:33;;;;;;;33.28;15.32;;;;;;;4.51;92.77;103244.72;2096934;28;44327;-73
2022/01/14 05:10:48;;;;;;;32.25;15.70;;;;;;;4.51;92.62;103249.13;2089480;28;44303;-72
2022/01/14 05:11:57;;;;;;;26.63;16.35;;;;;;;4.53;92.70;103256.28;2090660;28;42911;-73
2022/01/14 05:12:59;;;;;;;30.63;15.02;;;;;;;4.53;92.65;103245.69;2100770;28;20054;-73
2022/01/14 05:14:00;;;;;;;26.27;15.05;;;;;;;4.54;92.66;103250.16;2105362;28;44779;-73
2022/01/14 05:15:04;;;;;;;28.77;15.77;;;;;;;4.58;92.26;103253.84;2096651;28;45596;-74
2022/01/14 05:16:06;;;;;;;29.70;14.82;;;;;;;4.61;93.12;103247.72;2096752;28;44410;-74